sensor_id;sensor_type;location;lat;lon;timestamp;temperature;humidity
31725;DHT22;18306;40.960;14.836;2024-02-16T00:01:13;4.10;86.90
31725;DHT22;18306;40.960;14.836;2024-02-16T00:03:41;4.30;86.50
31725;DHT22;18306;40.960;14.836;2024-02-16T00:06:08;4.30;85.80
31725;DHT22;18306;40.960;14.836;2024-02-16T00:08:35;4.30;85.00
31725;DHT22;18306;40.960;14.836;2024-02-16T00:11:05;4.40;85.40
31725;DHT22;18306;40.960;14.836;2024-02-16T00:13:32;4.40;84.90
31725;DHT22;18306;40.960;14.836;2024-02-16T00:15:59;4.50;84.50
31725;DHT22;18306;40.960;14.836;2024-02-16T00:18:26;4.40;84.40
31725;DHT22;18306;40.960;14.836;2024-02-16T00:20:54;4.30;84.00
31725;DHT22;18306;40.960;14.836;2024-02-16T00:23:22;4.20;83.40
31725;DHT22;18306;40.960;14.836;2024-02-16T00:25:54;4.10;83.10
31725;DHT22;18306;40.960;14.836;2024-02-16T00:28:21;4.00;84.30
31725;DHT22;18306;40.960;14.836;2024-02-16T00:30:51;4.00;84.70
31725;DHT22;18306;40.960;14.836;2024-02-16T00:33:22;4.10;84.30
31725;DHT22;18306;40.960;14.836;2024-02-16T00:35:49;4.20;84.40
31725;DHT22;18306;40.960;14.836;2024-02-16T00:38:19;4.20;84.50
31725;DHT22;18306;40.960;14.836;2024-02-16T00:40:46;4.20;83.10
31725;DHT22;18306;40.960;14.836;2024-02-16T00:43:14;4.00;83.30
31725;DHT22;18306;40.960;14.836;2024-02-16T00:45:41;4.00;83.80
31725;DHT22;18306;40.960;14.836;2024-02-16T00:48:11;4.00;84.60
31725;DHT22;18306;40.960;14.836;2024-02-16T00:50:38;4.00;84.90
31725;DHT22;18306;40.960;14.836;2024-02-16T00:53:05;4.00;84.80
31725;DHT22;18306;40.960;14.836;2024-02-16T00:55:34;4.10;84.20
31725;DHT22;18306;40.960;14.836;2024-02-16T00:58:01;4.10;84.20
31725;DHT22;18306;40.960;14.836;2024-02-16T01:00:28;3.60;86.10
31725;DHT22;18306;40.960;14.836;2024-02-16T01:02:56;3.20;88.70
31725;DHT22;18306;40.960;14.836;2024-02-16T01:05:23;3.00;90.00
31725;DHT22;18306;40.960;14.836;2024-02-16T01:07:50;3.20;89.60
31725;DHT22;18306;40.960;14.836;2024-02-16T01:10:17;3.40;88.80
31725;DHT22;18306;40.960;14.836;2024-02-16T01:12:44;3.40;88.40
31725;DHT22;18306;40.960;14.836;2024-02-16T01:15:11;3.50;87.00
31725;DHT22;18306;40.960;14.836;2024-02-16T01:17:40;3.60;85.70
31725;DHT22;18306;40.960;14.836;2024-02-16T01:20:08;3.70;85.40
31725;DHT22;18306;40.960;14.836;2024-02-16T01:22:41;3.70;85.70
31725;DHT22;18306;40.960;14.836;2024-02-16T01:25:08;3.40;87.50
31725;DHT22;18306;40.960;14.836;2024-02-16T01:27:36;3.40;88.10
31725;DHT22;18306;40.960;14.836;2024-02-16T01:30:04;3.50;87.40
31725;DHT22;18306;40.960;14.836;2024-02-16T01:32:31;3.60;86.60
31725;DHT22;18306;40.960;14.836;2024-02-16T01:35:07;3.70;86.40
31725;DHT22;18306;40.960;14.836;2024-02-16T01:37:34;3.60;85.20
31725;DHT22;18306;40.960;14.836;2024-02-16T01:40:01;3.50;85.70
31725;DHT22;18306;40.960;14.836;2024-02-16T01:42:30;3.60;86.00
31725;DHT22;18306;40.960;14.836;2024-02-16T01:44:57;3.70;86.00
31725;DHT22;18306;40.960;14.836;2024-02-16T01:47:25;3.70;85.10
31725;DHT22;18306;40.960;14.836;2024-02-16T01:49:55;3.70;85.70
31725;DHT22;18306;40.960;14.836;2024-02-16T01:52:22;3.70;85.90
31725;DHT22;18306;40.960;14.836;2024-02-16T01:54:49;3.70;86.00
31725;DHT22;18306;40.960;14.836;2024-02-16T01:57:17;3.60;85.90
31725;DHT22;18306;40.960;14.836;2024-02-16T01:59:44;3.60;85.80
31725;DHT22;18306;40.960;14.836;2024-02-16T02:02:12;3.50;86.30
31725;DHT22;18306;40.960;14.836;2024-02-16T02:04:39;3.60;86.20
31725;DHT22;18306;40.960;14.836;2024-02-16T02:07:15;3.40;86.50
31725;DHT22;18306;40.960;14.836;2024-02-16T02:09:42;3.50;86.00
31725;DHT22;18306;40.960;14.836;2024-02-16T02:12:10;3.30;85.60
31725;DHT22;18306;40.960;14.836;2024-02-16T02:14:37;3.30;86.50
31725;DHT22;18306;40.960;14.836;2024-02-16T02:17:08;3.30;86.60
31725;DHT22;18306;40.960;14.836;2024-02-16T02:19:35;3.30;86.10
31725;DHT22;18306;40.960;14.836;2024-02-16T02:22:02;3.30;85.90
31725;DHT22;18306;40.960;14.836;2024-02-16T02:24:30;3.30;86.20
31725;DHT22;18306;40.960;14.836;2024-02-16T02:26:57;3.40;85.90
31725;DHT22;18306;40.960;14.836;2024-02-16T02:29:24;3.40;85.70
31725;DHT22;18306;40.960;14.836;2024-02-16T02:31:51;3.40;84.90
31725;DHT22;18306;40.960;14.836;2024-02-16T02:34:18;3.50;84.50
31725;DHT22;18306;40.960;14.836;2024-02-16T02:36:47;3.40;84.50
31725;DHT22;18306;40.960;14.836;2024-02-16T02:39:14;3.40;85.20
31725;DHT22;18306;40.960;14.836;2024-02-16T02:41:42;3.50;85.20
31725;DHT22;18306;40.960;14.836;2024-02-16T02:44:12;3.50;84.90
31725;DHT22;18306;40.960;14.836;2024-02-16T02:46:39;3.70;83.30
31725;DHT22;18306;40.960;14.836;2024-02-16T02:49:09;3.60;83.10
31725;DHT22;18306;40.960;14.836;2024-02-16T02:51:36;3.30;84.80
31725;DHT22;18306;40.960;14.836;2024-02-16T02:54:03;3.10;86.10
31725;DHT22;18306;40.960;14.836;2024-02-16T02:56:31;3.00;87.10
31725;DHT22;18306;40.960;14.836;2024-02-16T02:58:58;2.90;87.90
31725;DHT22;18306;40.960;14.836;2024-02-16T03:01:25;2.80;88.70
31725;DHT22;18306;40.960;14.836;2024-02-16T03:03:55;3.00;87.80
31725;DHT22;18306;40.960;14.836;2024-02-16T03:06:23;3.20;85.90
31725;DHT22;18306;40.960;14.836;2024-02-16T03:08:50;3.20;86.00
31725;DHT22;18306;40.960;14.836;2024-02-16T03:11:17;3.20;86.20
31725;DHT22;18306;40.960;14.836;2024-02-16T03:13:44;3.10;86.90
31725;DHT22;18306;40.960;14.836;2024-02-16T03:16:11;3.20;87.00
31725;DHT22;18306;40.960;14.836;2024-02-16T03:18:39;3.20;86.50
31725;DHT22;18306;40.960;14.836;2024-02-16T03:21:06;3.10;86.70
31725;DHT22;18306;40.960;14.836;2024-02-16T03:23:34;2.80;88.90
31725;DHT22;18306;40.960;14.836;2024-02-16T03:26:01;3.00;88.40
31725;DHT22;18306;40.960;14.836;2024-02-16T03:28:28;2.90;88.60
31725;DHT22;18306;40.960;14.836;2024-02-16T03:30:55;2.90;87.70
31725;DHT22;18306;40.960;14.836;2024-02-16T03:33:22;3.00;87.10
31725;DHT22;18306;40.960;14.836;2024-02-16T03:35:56;3.00;87.40
31725;DHT22;18306;40.960;14.836;2024-02-16T03:38:23;3.10;87.30
31725;DHT22;18306;40.960;14.836;2024-02-16T03:40:51;3.10;86.00
31725;DHT22;18306;40.960;14.836;2024-02-16T03:43:18;3.30;86.10
31725;DHT22;18306;40.960;14.836;2024-02-16T03:45:46;3.30;85.40
31725;DHT22;18306;40.960;14.836;2024-02-16T03:48:12;3.30;85.70
31725;DHT22;18306;40.960;14.836;2024-02-16T03:50:40;3.20;85.40
31725;DHT22;18306;40.960;14.836;2024-02-16T03:53:07;3.10;85.40
31725;DHT22;18306;40.960;14.836;2024-02-16T03:55:34;3.10;85.90
31725;DHT22;18306;40.960;14.836;2024-02-16T03:58:03;2.90;86.70
31725;DHT22;18306;40.960;14.836;2024-02-16T04:00:31;2.80;87.00
31725;DHT22;18306;40.960;14.836;2024-02-16T04:02:59;2.80;87.00
31725;DHT22;18306;40.960;14.836;2024-02-16T04:05:28;2.80;86.70
31725;DHT22;18306;40.960;14.836;2024-02-16T04:07:59;2.80;86.80
31725;DHT22;18306;40.960;14.836;2024-02-16T04:10:28;2.70;86.90
31725;DHT22;18306;40.960;14.836;2024-02-16T04:12:55;2.80;87.10
31725;DHT22;18306;40.960;14.836;2024-02-16T04:15:26;2.90;87.00
31725;DHT22;18306;40.960;14.836;2024-02-16T04:18:15;3.10;86.00
31725;DHT22;18306;40.960;14.836;2024-02-16T04:20:55;3.20;85.00
31725;DHT22;18306;40.960;14.836;2024-02-16T04:23:31;3.30;84.80
31725;DHT22;18306;40.960;14.836;2024-02-16T04:26:04;3.00;85.40
31725;DHT22;18306;40.960;14.836;2024-02-16T04:28:33;2.80;86.50
31725;DHT22;18306;40.960;14.836;2024-02-16T04:31:01;2.80;87.10
31725;DHT22;18306;40.960;14.836;2024-02-16T04:33:28;2.80;87.10
31725;DHT22;18306;40.960;14.836;2024-02-16T04:35:55;2.80;85.00
31725;DHT22;18306;40.960;14.836;2024-02-16T04:38:22;3.00;84.80
31725;DHT22;18306;40.960;14.836;2024-02-16T04:40:50;2.90;84.90
31725;DHT22;18306;40.960;14.836;2024-02-16T04:43:19;2.80;85.70
31725;DHT22;18306;40.960;14.836;2024-02-16T04:45:46;2.90;86.00
31725;DHT22;18306;40.960;14.836;2024-02-16T04:48:13;2.90;85.80
31725;DHT22;18306;40.960;14.836;2024-02-16T04:50:40;2.80;85.90
31725;DHT22;18306;40.960;14.836;2024-02-16T04:53:07;2.90;86.00
31725;DHT22;18306;40.960;14.836;2024-02-16T04:55:35;3.00;85.60
31725;DHT22;18306;40.960;14.836;2024-02-16T04:58:02;3.10;85.10
31725;DHT22;18306;40.960;14.836;2024-02-16T05:00:38;3.20;84.80
31725;DHT22;18306;40.960;14.836;2024-02-16T05:03:05;3.00;84.60
31725;DHT22;18306;40.960;14.836;2024-02-16T05:05:32;3.00;85.40
31725;DHT22;18306;40.960;14.836;2024-02-16T05:08:00;3.00;85.40
31725;DHT22;18306;40.960;14.836;2024-02-16T05:10:27;3.10;84.50
31725;DHT22;18306;40.960;14.836;2024-02-16T05:12:54;2.90;85.30
31725;DHT22;18306;40.960;14.836;2024-02-16T05:15:22;3.00;85.40
31725;DHT22;18306;40.960;14.836;2024-02-16T05:17:49;2.80;85.00
31725;DHT22;18306;40.960;14.836;2024-02-16T05:20:17;2.80;85.30
31725;DHT22;18306;40.960;14.836;2024-02-16T05:22:47;2.80;85.50
31725;DHT22;18306;40.960;14.836;2024-02-16T05:25:16;2.90;85.20
31725;DHT22;18306;40.960;14.836;2024-02-16T05:27:51;2.90;85.00
31725;DHT22;18306;40.960;14.836;2024-02-16T05:30:19;2.80;85.50
31725;DHT22;18306;40.960;14.836;2024-02-16T05:32:47;2.80;85.70
31725;DHT22;18306;40.960;14.836;2024-02-16T05:35:15;2.80;85.50
31725;DHT22;18306;40.960;14.836;2024-02-16T05:37:45;2.40;87.30
31725;DHT22;18306;40.960;14.836;2024-02-16T05:40:18;2.40;88.00
31725;DHT22;18306;40.960;14.836;2024-02-16T05:42:50;2.40;88.20
31725;DHT22;18306;40.960;14.836;2024-02-16T05:45:18;2.40;88.10
31725;DHT22;18306;40.960;14.836;2024-02-16T05:47:46;2.50;87.70
31725;DHT22;18306;40.960;14.836;2024-02-16T05:50:14;2.50;87.30
31725;DHT22;18306;40.960;14.836;2024-02-16T05:52:45;2.50;87.50
31725;DHT22;18306;40.960;14.836;2024-02-16T05:55:12;2.60;87.50
31725;DHT22;18306;40.960;14.836;2024-02-16T05:57:40;2.60;87.50
31725;DHT22;18306;40.960;14.836;2024-02-16T06:00:10;2.60;86.60
31725;DHT22;18306;40.960;14.836;2024-02-16T06:02:38;2.50;86.40
31725;DHT22;18306;40.960;14.836;2024-02-16T06:05:05;2.60;87.10
31725;DHT22;18306;40.960;14.836;2024-02-16T06:07:33;2.60;87.20
31725;DHT22;18306;40.960;14.836;2024-02-16T06:10:05;2.70;87.10
31725;DHT22;18306;40.960;14.836;2024-02-16T06:12:37;2.70;86.80
31725;DHT22;18306;40.960;14.836;2024-02-16T06:15:08;2.70;86.70
31725;DHT22;18306;40.960;14.836;2024-02-16T06:17:35;2.60;85.70
31725;DHT22;18306;40.960;14.836;2024-02-16T06:20:03;2.60;87.10
31725;DHT22;18306;40.960;14.836;2024-02-16T06:22:31;2.70;87.10
31725;DHT22;18306;40.960;14.836;2024-02-16T06:24:58;2.60;87.60
31725;DHT22;18306;40.960;14.836;2024-02-16T06:27:25;2.60;87.80
31725;DHT22;18306;40.960;14.836;2024-02-16T06:29:52;2.60;88.30
31725;DHT22;18306;40.960;14.836;2024-02-16T06:32:20;2.60;88.30
31725;DHT22;18306;40.960;14.836;2024-02-16T06:34:47;2.70;87.70
31725;DHT22;18306;40.960;14.836;2024-02-16T06:37:14;2.60;87.60
31725;DHT22;18306;40.960;14.836;2024-02-16T06:39:41;2.70;88.10
31725;DHT22;18306;40.960;14.836;2024-02-16T06:42:10;2.70;88.00
31725;DHT22;18306;40.960;14.836;2024-02-16T06:44:39;2.80;87.70
31725;DHT22;18306;40.960;14.836;2024-02-16T06:47:07;2.80;87.90
31725;DHT22;18306;40.960;14.836;2024-02-16T06:49:35;2.80;87.70
31725;DHT22;18306;40.960;14.836;2024-02-16T06:52:07;3.00;87.70
31725;DHT22;18306;40.960;14.836;2024-02-16T06:54:36;3.00;88.10
31725;DHT22;18306;40.960;14.836;2024-02-16T06:57:03;3.00;87.90
31725;DHT22;18306;40.960;14.836;2024-02-16T06:59:30;3.10;87.60
31725;DHT22;18306;40.960;14.836;2024-02-16T07:01:58;3.10;87.40
31725;DHT22;18306;40.960;14.836;2024-02-16T07:04:25;3.20;87.70
31725;DHT22;18306;40.960;14.836;2024-02-16T07:06:52;3.30;87.50
31725;DHT22;18306;40.960;14.836;2024-02-16T07:09:20;3.40;86.80
31725;DHT22;18306;40.960;14.836;2024-02-16T07:11:48;3.70;86.10
31725;DHT22;18306;40.960;14.836;2024-02-16T07:14:17;3.80;86.00
31725;DHT22;18306;40.960;14.836;2024-02-16T07:16:44;3.90;85.50
31725;DHT22;18306;40.960;14.836;2024-02-16T07:19:11;3.90;85.30
31725;DHT22;18306;40.960;14.836;2024-02-16T07:21:41;4.20;84.30
31725;DHT22;18306;40.960;14.836;2024-02-16T07:24:08;4.40;83.20
31725;DHT22;18306;40.960;14.836;2024-02-16T07:26:35;4.50;83.00
31725;DHT22;18306;40.960;14.836;2024-02-16T07:29:03;4.70;82.50
31725;DHT22;18306;40.960;14.836;2024-02-16T07:31:33;4.80;82.00
31725;DHT22;18306;40.960;14.836;2024-02-16T07:34:04;4.80;82.40
31725;DHT22;18306;40.960;14.836;2024-02-16T07:36:34;5.40;82.40
31725;DHT22;18306;40.960;14.836;2024-02-16T07:39:03;6.40;78.50
31725;DHT22;18306;40.960;14.836;2024-02-16T07:41:31;6.90;75.40
31725;DHT22;18306;40.960;14.836;2024-02-16T07:43:58;7.20;74.80
31725;DHT22;18306;40.960;14.836;2024-02-16T07:46:25;7.80;72.70
31725;DHT22;18306;40.960;14.836;2024-02-16T07:48:52;9.20;68.90
31725;DHT22;18306;40.960;14.836;2024-02-16T07:51:19;10.50;63.90
31725;DHT22;18306;40.960;14.836;2024-02-16T07:53:47;11.40;61.90
31725;DHT22;18306;40.960;14.836;2024-02-16T07:58:42;13.40;55.40
31725;DHT22;18306;40.960;14.836;2024-02-16T08:01:11;14.40;52.90
31725;DHT22;18306;40.960;14.836;2024-02-16T08:03:42;15.30;49.70
31725;DHT22;18306;40.960;14.836;2024-02-16T08:06:09;15.40;48.80
31725;DHT22;18306;40.960;14.836;2024-02-16T08:08:36;15.40;49.20
31725;DHT22;18306;40.960;14.836;2024-02-16T08:11:03;14.50;49.80
31725;DHT22;18306;40.960;14.836;2024-02-16T08:13:30;13.50;52.90
31725;DHT22;18306;40.960;14.836;2024-02-16T08:15:58;12.60;54.80
31725;DHT22;18306;40.960;14.836;2024-02-16T08:18:25;12.10;57.60
31725;DHT22;18306;40.960;14.836;2024-02-16T08:20:52;11.60;58.60
31725;DHT22;18306;40.960;14.836;2024-02-16T08:23:19;11.50;60.20
31725;DHT22;18306;40.960;14.836;2024-02-16T08:25:47;11.30;60.10
31725;DHT22;18306;40.960;14.836;2024-02-16T08:28:14;11.30;60.40
31725;DHT22;18306;40.960;14.836;2024-02-16T08:30:41;11.00;61.80
31725;DHT22;18306;40.960;14.836;2024-02-16T08:33:11;10.90;62.20
31725;DHT22;18306;40.960;14.836;2024-02-16T08:35:39;10.90;63.10
31725;DHT22;18306;40.960;14.836;2024-02-16T08:38:07;10.90;62.90
31725;DHT22;18306;40.960;14.836;2024-02-16T08:40:37;10.80;62.90
31725;DHT22;18306;40.960;14.836;2024-02-16T08:43:09;10.70;63.10
31725;DHT22;18306;40.960;14.836;2024-02-16T08:45:38;10.50;64.40
31725;DHT22;18306;40.960;14.836;2024-02-16T08:48:09;10.40;64.60
31725;DHT22;18306;40.960;14.836;2024-02-16T08:50:44;10.40;65.20
31725;DHT22;18306;40.960;14.836;2024-02-16T08:53:11;10.20;65.30
31725;DHT22;18306;40.960;14.836;2024-02-16T08:55:40;10.20;65.50
31725;DHT22;18306;40.960;14.836;2024-02-16T08:58:09;10.20;65.70
31725;DHT22;18306;40.960;14.836;2024-02-16T09:00:36;10.20;66.00
31725;DHT22;18306;40.960;14.836;2024-02-16T09:03:05;10.20;66.20
31725;DHT22;18306;40.960;14.836;2024-02-16T09:05:33;10.20;66.80
31725;DHT22;18306;40.960;14.836;2024-02-16T09:08:00;10.20;66.60
31725;DHT22;18306;40.960;14.836;2024-02-16T09:10:32;10.30;66.40
31725;DHT22;18306;40.960;14.836;2024-02-16T09:13:05;10.40;66.70
31725;DHT22;18306;40.960;14.836;2024-02-16T09:15:32;10.40;66.60
31725;DHT22;18306;40.960;14.836;2024-02-16T09:17:59;10.50;66.50
31725;DHT22;18306;40.960;14.836;2024-02-16T09:20:26;10.50;66.70
31725;DHT22;18306;40.960;14.836;2024-02-16T09:22:54;10.60;66.60
31725;DHT22;18306;40.960;14.836;2024-02-16T09:25:21;10.70;65.90
31725;DHT22;18306;40.960;14.836;2024-02-16T09:27:48;10.90;64.20
31725;DHT22;18306;40.960;14.836;2024-02-16T09:30:15;11.10;64.00
31725;DHT22;18306;40.960;14.836;2024-02-16T09:32:45;11.20;63.50
31725;DHT22;18306;40.960;14.836;2024-02-16T09:35:12;11.30;64.00
31725;DHT22;18306;40.960;14.836;2024-02-16T09:37:39;11.50;63.70
31725;DHT22;18306;40.960;14.836;2024-02-16T09:40:07;11.70;63.40
31725;DHT22;18306;40.960;14.836;2024-02-16T09:42:37;11.80;63.20
31725;DHT22;18306;40.960;14.836;2024-02-16T09:45:08;12.00;63.00
31725;DHT22;18306;40.960;14.836;2024-02-16T09:47:39;12.10;62.40
31725;DHT22;18306;40.960;14.836;2024-02-16T09:50:09;12.30;61.80
31725;DHT22;18306;40.960;14.836;2024-02-16T09:52:38;12.50;60.20
31725;DHT22;18306;40.960;14.836;2024-02-16T09:58:21;12.70;61.00
31725;DHT22;18306;40.960;14.836;2024-02-16T10:00:52;12.90;60.70
31725;DHT22;18306;40.960;14.836;2024-02-16T10:03:23;13.10;60.60
31725;DHT22;18306;40.960;14.836;2024-02-16T10:06:05;13.20;60.10
31725;DHT22;18306;40.960;14.836;2024-02-16T10:08:50;13.40;60.10
31725;DHT22;18306;40.960;14.836;2024-02-16T10:11:21;13.60;60.10
31725;DHT22;18306;40.960;14.836;2024-02-16T10:14:09;13.60;61.00
31725;DHT22;18306;40.960;14.836;2024-02-16T10:16:37;13.70;58.90
31725;DHT22;18306;40.960;14.836;2024-02-16T10:19:11;13.90;57.70
31725;DHT22;18306;40.960;14.836;2024-02-16T10:21:38;14.00;58.50
31725;DHT22;18306;40.960;14.836;2024-02-16T10:24:09;14.30;56.60
31725;DHT22;18306;40.960;14.836;2024-02-16T10:26:40;14.40;56.50
31725;DHT22;18306;40.960;14.836;2024-02-16T10:29:18;14.60;55.80
31725;DHT22;18306;40.960;14.836;2024-02-16T10:31:53;14.80;54.60
31725;DHT22;18306;40.960;14.836;2024-02-16T10:34:25;15.00;53.80
31725;DHT22;18306;40.960;14.836;2024-02-16T10:36:53;15.00;53.30
31725;DHT22;18306;40.960;14.836;2024-02-16T10:39:20;15.10;53.20
31725;DHT22;18306;40.960;14.836;2024-02-16T10:41:49;15.20;52.70
31725;DHT22;18306;40.960;14.836;2024-02-16T10:44:20;15.30;51.30
31725;DHT22;18306;40.960;14.836;2024-02-16T10:46:48;15.40;50.20
31725;DHT22;18306;40.960;14.836;2024-02-16T10:49:15;15.60;50.00
31725;DHT22;18306;40.960;14.836;2024-02-16T10:51:46;15.70;50.30
31725;DHT22;18306;40.960;14.836;2024-02-16T10:54:17;15.70;50.90
31725;DHT22;18306;40.960;14.836;2024-02-16T10:56:45;15.70;50.50
31725;DHT22;18306;40.960;14.836;2024-02-16T10:59:12;15.80;49.00
31725;DHT22;18306;40.960;14.836;2024-02-16T11:01:41;15.90;49.30
31725;DHT22;18306;40.960;14.836;2024-02-16T11:04:35;15.90;49.40
31725;DHT22;18306;40.960;14.836;2024-02-16T11:06:59;16.00;50.00
31725;DHT22;18306;40.960;14.836;2024-02-16T11:14:24;16.10;48.40
31725;DHT22;18306;40.960;14.836;2024-02-16T11:17:01;16.20;48.80
31725;DHT22;18306;40.960;14.836;2024-02-16T11:19:30;16.20;48.30
31725;DHT22;18306;40.960;14.836;2024-02-16T11:22:03;16.30;47.90
31725;DHT22;18306;40.960;14.836;2024-02-16T11:24:48;16.40;47.30
31725;DHT22;18306;40.960;14.836;2024-02-16T11:27:16;16.50;48.50
31725;DHT22;18306;40.960;14.836;2024-02-16T11:29:50;16.50;47.70
31725;DHT22;18306;40.960;14.836;2024-02-16T11:32:18;16.50;48.10
31725;DHT22;18306;40.960;14.836;2024-02-16T11:34:46;16.50;48.10
31725;DHT22;18306;40.960;14.836;2024-02-16T11:37:14;16.60;46.60
31725;DHT22;18306;40.960;14.836;2024-02-16T11:39:44;16.50;47.90
31725;DHT22;18306;40.960;14.836;2024-02-16T11:42:19;16.60;49.20
31725;DHT22;18306;40.960;14.836;2024-02-16T11:44:55;16.70;47.90
31725;DHT22;18306;40.960;14.836;2024-02-16T11:47:24;16.90;46.90
31725;DHT22;18306;40.960;14.836;2024-02-16T11:50:06;16.80;47.20
31725;DHT22;18306;40.960;14.836;2024-02-16T11:52:35;17.00;46.70
31725;DHT22;18306;40.960;14.836;2024-02-16T11:55:03;16.80;48.00
31725;DHT22;18306;40.960;14.836;2024-02-16T11:57:32;16.80;46.90
31725;DHT22;18306;40.960;14.836;2024-02-16T12:00:01;16.80;47.20
31725;DHT22;18306;40.960;14.836;2024-02-16T12:02:32;16.70;46.70
31725;DHT22;18306;40.960;14.836;2024-02-16T12:05:00;16.60;48.10
31725;DHT22;18306;40.960;14.836;2024-02-16T12:07:28;16.60;47.90
31725;DHT22;18306;40.960;14.836;2024-02-16T12:10:03;16.90;46.60
31725;DHT22;18306;40.960;14.836;2024-02-16T12:12:34;16.80;47.00
31725;DHT22;18306;40.960;14.836;2024-02-16T12:15:01;16.70;47.70
31725;DHT22;18306;40.960;14.836;2024-02-16T12:17:29;16.70;47.30
31725;DHT22;18306;40.960;14.836;2024-02-16T12:19:57;16.70;47.40
31725;DHT22;18306;40.960;14.836;2024-02-16T12:22:25;16.80;48.00
31725;DHT22;18306;40.960;14.836;2024-02-16T12:24:52;16.90;47.10
31725;DHT22;18306;40.960;14.836;2024-02-16T12:27:22;16.80;47.50
31725;DHT22;18306;40.960;14.836;2024-02-16T12:29:50;16.80;47.60
31725;DHT22;18306;40.960;14.836;2024-02-16T12:32:20;16.70;47.70
31725;DHT22;18306;40.960;14.836;2024-02-16T12:34:48;16.80;47.40
31725;DHT22;18306;40.960;14.836;2024-02-16T12:37:25;16.80;48.00
31725;DHT22;18306;40.960;14.836;2024-02-16T12:39:52;16.90;46.30
31725;DHT22;18306;40.960;14.836;2024-02-16T12:42:19;17.00;46.20
31725;DHT22;18306;40.960;14.836;2024-02-16T12:44:47;17.10;45.20
31725;DHT22;18306;40.960;14.836;2024-02-16T12:47:16;17.20;44.40
31725;DHT22;18306;40.960;14.836;2024-02-16T12:49:50;17.10;46.70
31725;DHT22;18306;40.960;14.836;2024-02-16T12:52:20;17.20;45.50
31725;DHT22;18306;40.960;14.836;2024-02-16T12:54:51;17.20;45.00
31725;DHT22;18306;40.960;14.836;2024-02-16T12:57:21;17.10;44.80
31725;DHT22;18306;40.960;14.836;2024-02-16T12:59:49;16.90;46.20
31725;DHT22;18306;40.960;14.836;2024-02-16T13:02:16;17.00;46.70
31725;DHT22;18306;40.960;14.836;2024-02-16T13:04:43;17.10;45.40
31725;DHT22;18306;40.960;14.836;2024-02-16T13:07:11;17.10;45.60
31725;DHT22;18306;40.960;14.836;2024-02-16T13:09:38;17.20;45.20
31725;DHT22;18306;40.960;14.836;2024-02-16T13:12:05;17.20;45.20
31725;DHT22;18306;40.960;14.836;2024-02-16T13:14:33;17.20;46.00
31725;DHT22;18306;40.960;14.836;2024-02-16T13:17:04;17.00;46.40
31725;DHT22;18306;40.960;14.836;2024-02-16T13:19:31;17.00;47.10
31725;DHT22;18306;40.960;14.836;2024-02-16T13:21:58;16.90;46.90
31725;DHT22;18306;40.960;14.836;2024-02-16T13:24:25;17.00;47.20
31725;DHT22;18306;40.960;14.836;2024-02-16T13:26:52;17.00;46.80
31725;DHT22;18306;40.960;14.836;2024-02-16T13:29:19;17.10;45.70
31725;DHT22;18306;40.960;14.836;2024-02-16T13:31:46;17.10;46.30
31725;DHT22;18306;40.960;14.836;2024-02-16T13:34:15;17.20;45.20
31725;DHT22;18306;40.960;14.836;2024-02-16T13:36:42;17.20;45.30
31725;DHT22;18306;40.960;14.836;2024-02-16T13:39:09;17.30;45.40
31725;DHT22;18306;40.960;14.836;2024-02-16T13:41:42;17.40;45.40
31725;DHT22;18306;40.960;14.836;2024-02-16T13:44:11;17.40;45.30
31725;DHT22;18306;40.960;14.836;2024-02-16T13:46:38;17.40;45.40
31725;DHT22;18306;40.960;14.836;2024-02-16T13:49:08;17.40;45.80
31725;DHT22;18306;40.960;14.836;2024-02-16T13:51:35;17.40;45.90
31725;DHT22;18306;40.960;14.836;2024-02-16T13:54:02;17.40;46.00
31725;DHT22;18306;40.960;14.836;2024-02-16T13:56:29;17.30;45.90
31725;DHT22;18306;40.960;14.836;2024-02-16T13:58:56;17.30;45.80
31725;DHT22;18306;40.960;14.836;2024-02-16T14:01:24;17.40;46.00
31725;DHT22;18306;40.960;14.836;2024-02-16T14:03:52;17.40;45.90
31725;DHT22;18306;40.960;14.836;2024-02-16T14:06:19;17.50;45.50
31725;DHT22;18306;40.960;14.836;2024-02-16T14:08:47;17.60;45.60
31725;DHT22;18306;40.960;14.836;2024-02-16T14:11:19;17.60;45.20
31725;DHT22;18306;40.960;14.836;2024-02-16T14:13:48;17.50;45.60
31725;DHT22;18306;40.960;14.836;2024-02-16T14:16:15;17.60;45.50
31725;DHT22;18306;40.960;14.836;2024-02-16T14:18:42;17.60;45.00
31725;DHT22;18306;40.960;14.836;2024-02-16T14:21:09;17.60;45.10
31725;DHT22;18306;40.960;14.836;2024-02-16T14:23:37;17.70;44.80
31725;DHT22;18306;40.960;14.836;2024-02-16T14:26:04;17.60;44.90
31725;DHT22;18306;40.960;14.836;2024-02-16T14:28:31;17.50;44.90
31725;DHT22;18306;40.960;14.836;2024-02-16T14:30:58;17.40;45.80
31725;DHT22;18306;40.960;14.836;2024-02-16T14:33:25;17.40;45.80
31725;DHT22;18306;40.960;14.836;2024-02-16T14:35:55;17.30;46.10
31725;DHT22;18306;40.960;14.836;2024-02-16T14:38:22;17.20;46.50
31725;DHT22;18306;40.960;14.836;2024-02-16T14:40:49;17.40;45.80
31725;DHT22;18306;40.960;14.836;2024-02-16T14:43:19;17.50;46.30
31725;DHT22;18306;40.960;14.836;2024-02-16T14:45:47;17.50;46.20
31725;DHT22;18306;40.960;14.836;2024-02-16T14:48:16;17.50;46.30
31725;DHT22;18306;40.960;14.836;2024-02-16T14:50:44;17.40;46.20
31725;DHT22;18306;40.960;14.836;2024-02-16T14:53:11;17.30;46.60
31725;DHT22;18306;40.960;14.836;2024-02-16T14:55:38;17.20;47.20
31725;DHT22;18306;40.960;14.836;2024-02-16T14:58:05;17.20;46.90
31725;DHT22;18306;40.960;14.836;2024-02-16T15:00:33;17.10;47.30
31725;DHT22;18306;40.960;14.836;2024-02-16T15:03:02;17.10;47.50
31725;DHT22;18306;40.960;14.836;2024-02-16T15:05:29;17.10;47.30
31725;DHT22;18306;40.960;14.836;2024-02-16T15:07:57;17.20;46.90
31725;DHT22;18306;40.960;14.836;2024-02-16T15:10:24;17.00;47.70
31725;DHT22;18306;40.960;14.836;2024-02-16T15:12:51;16.80;49.20
31725;DHT22;18306;40.960;14.836;2024-02-16T15:15:18;16.00;51.50
31725;DHT22;18306;40.960;14.836;2024-02-16T15:17:48;15.50;54.80
31725;DHT22;18306;40.960;14.836;2024-02-16T15:20:16;15.30;54.90
31725;DHT22;18306;40.960;14.836;2024-02-16T15:22:43;15.00;56.40
31725;DHT22;18306;40.960;14.836;2024-02-16T15:25:11;14.80;57.30
31725;DHT22;18306;40.960;14.836;2024-02-16T15:27:38;14.80;58.50
31725;DHT22;18306;40.960;14.836;2024-02-16T15:30:08;14.80;59.00
31725;DHT22;18306;40.960;14.836;2024-02-16T15:32:35;14.80;59.20
31725;DHT22;18306;40.960;14.836;2024-02-16T15:35:02;14.90;59.40
31725;DHT22;18306;40.960;14.836;2024-02-16T15:37:34;14.90;59.70
31725;DHT22;18306;40.960;14.836;2024-02-16T15:40:01;14.80;59.80
31725;DHT22;18306;40.960;14.836;2024-02-16T15:42:29;14.70;59.90